createdAt,value
2022-08-26T00:00:57.431Z,5.50
2022-08-26T00:03:59.755Z,4.90
2022-08-26T00:07:11.347Z,5.75
2022-08-26T00:10:50.251Z,6.38
2022-08-26T00:13:52.157Z,5.30
2022-08-26T00:17:27.486Z,5.72
2022-08-26T00:20:40.659Z,5.45
2022-08-26T00:23:46.919Z,5.22
2022-08-26T00:26:52.863Z,5.28
2022-08-26T00:29:54.711Z,5.63
2022-08-26T00:33:02.829Z,5.90
2022-08-26T00:36:05.442Z,5.72
2022-08-26T00:39:31.889Z,5.78
2022-08-26T00:46:18.598Z,7.18
2022-08-26T00:49:31.152Z,5.20
2022-08-26T00:52:33.636Z,5.53
2022-08-26T00:55:41.947Z,5.53
2022-08-26T00:59:00.257Z,6.57
2022-08-26T01:02:06.650Z,5.80
2022-08-26T01:10:11.936Z,5.38
2022-08-26T01:13:21.157Z,5.90
2022-08-26T01:16:25.807Z,5.85
2022-08-26T01:20:00.304Z,5.80
2022-08-26T01:23:59.535Z,5.78
2022-08-26T01:27:09.733Z,6.38
2022-08-26T01:30:18.215Z,5.65
2022-08-26T01:33:25.130Z,6.03
2022-08-26T01:36:28.704Z,6.63
2022-08-26T01:39:37.063Z,6.40
2022-08-26T01:42:44.625Z,9.93
2022-08-26T01:46:21.502Z,5.95
2022-08-26T01:49:34.398Z,6.53
2022-08-26T01:52:39.827Z,6.45
2022-08-26T01:55:52.965Z,5.95
2022-08-26T01:59:03.404Z,6.05
2022-08-26T02:02:05.799Z,5.65
2022-08-26T02:05:11.133Z,7.47
2022-08-26T02:08:14.212Z,6.70
2022-08-26T02:11:43.019Z,6.50
2022-08-26T02:14:50.398Z,5.53
2022-08-26T02:17:53.301Z,6.10
2022-08-26T02:20:57.516Z,5.90
2022-08-26T02:24:15.598Z,5.85
2022-08-26T02:27:32.281Z,7.10
2022-08-26T02:30:34.743Z,6.00
2022-08-26T02:33:37.858Z,5.97
2022-08-26T02:36:45.174Z,6.82
2022-08-26T02:39:47.240Z,6.47
2022-08-26T02:42:56.048Z,6.50
2022-08-26T02:46:06.712Z,7.05
2022-08-26T02:53:01.948Z,5.90
2022-08-26T02:56:08.611Z,6.28
2022-08-26T02:59:12.653Z,6.85
2022-08-26T03:02:16.860Z,6.45
2022-08-26T03:05:28.375Z,5.90
2022-08-26T03:08:30.351Z,6.43
2022-08-26T03:11:33.341Z,6.22
2022-08-26T03:14:41.107Z,6.10
2022-08-26T03:17:57.215Z,6.30
2022-08-26T03:21:09.180Z,5.90
2022-08-26T03:24:15.689Z,7.32
2022-08-26T03:27:17.714Z,6.22
2022-08-26T03:30:38.586Z,5.50
2022-08-26T03:33:47.376Z,6.18
2022-08-26T03:36:51.872Z,6.15
2022-08-26T03:39:53.608Z,6.30
2022-08-26T03:42:59.503Z,6.97
2022-08-26T03:49:08.142Z,6.50
2022-08-26T03:52:19.302Z,6.43
2022-08-26T03:55:25.398Z,5.78
2022-08-26T03:58:54.220Z,5.93
2022-08-26T04:01:59.032Z,5.65
2022-08-26T04:05:00.774Z,6.25
2022-08-26T04:08:11.676Z,6.45
2022-08-26T04:11:20.164Z,6.13
2022-08-26T04:14:25.957Z,6.13
2022-08-26T04:17:29.708Z,5.88
2022-08-26T04:20:39.329Z,6.78
2022-08-26T04:23:50.351Z,6.65
2022-08-26T04:26:52.581Z,7.80
2022-08-26T04:30:00.016Z,6.35
2022-08-26T04:33:13.175Z,7.03
2022-08-26T04:36:58.644Z,5.95
2022-08-26T04:40:00.533Z,5.78
2022-08-26T04:43:05.796Z,6.00
2022-08-26T04:46:13.679Z,6.13
2022-08-26T04:49:16.112Z,6.25
2022-08-26T04:52:23.031Z,5.50
2022-08-26T04:55:39.757Z,6.30
2022-08-26T04:58:52.437Z,6.22
2022-08-26T05:02:07.036Z,7.72
2022-08-26T05:05:10.698Z,6.32
2022-08-26T05:08:14.940Z,7.82
2022-08-26T05:11:17.439Z,6.47
2022-08-26T05:14:23.844Z,6.72
2022-08-26T05:17:33.466Z,6.03
2022-08-26T05:20:44.039Z,7.00
2022-08-26T05:23:48.299Z,6.57
2022-08-26T05:26:54.627Z,6.40
2022-08-26T05:29:58.435Z,5.85
2022-08-26T05:33:00.286Z,6.60
2022-08-26T05:36:11.978Z,6.63
2022-08-26T05:39:15.244Z,8.15
2022-08-26T05:42:18.212Z,7.18
2022-08-26T05:45:24.226Z,7.03
2022-08-26T05:48:25.952Z,6.40
2022-08-26T05:51:37.133Z,5.80
2022-08-26T05:54:39.974Z,6.53
2022-08-26T05:57:42.879Z,8.23
2022-08-26T06:00:45.256Z,6.70
2022-08-26T06:03:50.101Z,6.90
2022-08-26T06:06:55.070Z,7.75
2022-08-26T06:10:21.380Z,7.18
2022-08-26T06:13:21.576Z,6.75
2022-08-26T06:16:24.569Z,6.95
2022-08-26T06:19:34.520Z,6.28
2022-08-26T06:23:12.139Z,6.03
2022-08-26T06:26:16.617Z,6.97
2022-08-26T06:29:24.184Z,5.72
2022-08-26T06:32:26.682Z,6.10
2022-08-26T06:35:28.469Z,7.40
2022-08-26T06:38:30.992Z,6.25
2022-08-26T06:41:34.726Z,6.53
2022-08-26T06:44:36.523Z,6.35
2022-08-26T06:47:38.181Z,8.18
2022-08-26T06:50:40.997Z,6.25
2022-08-26T06:53:48.555Z,6.88
2022-08-26T06:56:50.385Z,6.18
2022-08-26T06:59:52.650Z,6.35
2022-08-26T07:02:54.308Z,6.88
2022-08-26T07:06:02.654Z,6.50
2022-08-26T07:09:09.703Z,6.40
2022-08-26T07:12:11.967Z,6.80
2022-08-26T07:15:13.720Z,6.85
2022-08-26T07:18:17.409Z,6.50
2022-08-26T07:21:21.131Z,6.30
2022-08-26T07:24:23.715Z,6.28
2022-08-26T07:27:30.351Z,6.50
2022-08-26T07:30:32.201Z,7.68
2022-08-26T07:33:34.456Z,5.80
2022-08-26T07:36:36.530Z,6.05
2022-08-26T07:39:40.378Z,6.65
2022-08-26T07:42:43.463Z,7.22
2022-08-26T07:45:45.856Z,7.13
2022-08-26T07:48:53.627Z,7.38
2022-08-26T07:51:56.752Z,6.57
2022-08-26T07:55:01.667Z,9.45
2022-08-26T07:58:04.470Z,6.68
2022-08-26T08:01:07.638Z,7.05
2022-08-26T08:04:12.403Z,6.00
2022-08-26T08:07:15.652Z,6.40
2022-08-26T08:10:22.156Z,6.75
2022-08-26T08:13:28.013Z,6.90
2022-08-26T08:16:32.361Z,6.43
2022-08-26T08:19:37.014Z,6.38
2022-08-26T08:22:41.289Z,7.18
2022-08-26T08:25:44.751Z,6.30
2022-08-26T08:28:47.845Z,8.00
2022-08-26T08:31:56.819Z,7.75
2022-08-26T08:35:00.219Z,6.30
2022-08-26T08:38:04.281Z,7.60
2022-08-26T08:41:06.490Z,7.45
2022-08-26T08:44:19.232Z,7.32
2022-08-26T08:47:24.167Z,6.78
2022-08-26T08:50:45.729Z,8.70
2022-08-26T08:53:54.609Z,6.15
2022-08-26T08:57:07.173Z,6.68
2022-08-26T09:00:13.999Z,6.05
2022-08-26T09:03:40.529Z,6.10
2022-08-26T09:06:44.397Z,6.13
2022-08-26T09:09:52.058Z,8.68
2022-08-26T09:12:54.507Z,8.00
2022-08-26T09:16:15.904Z,5.95
2022-08-26T09:19:40.392Z,7.32
2022-08-26T09:22:44.313Z,9.05
2022-08-26T09:25:49.622Z,7.20
2022-08-26T09:29:03.639Z,6.85
2022-08-26T09:32:21.957Z,7.03
2022-08-26T09:35:28.539Z,9.07
2022-08-26T09:38:34.468Z,8.45
2022-08-26T09:41:37.128Z,7.00
2022-08-26T09:44:54.447Z,8.13
2022-08-26T09:47:57.904Z,7.47
2022-08-26T09:51:07.225Z,6.45
2022-08-26T09:54:30.463Z,6.45
2022-08-26T09:57:44.854Z,6.47
2022-08-26T10:00:58.000Z,6.75
2022-08-26T10:04:20.946Z,6.18
2022-08-26T10:07:44.455Z,8.55
2022-08-26T10:10:46.923Z,6.35
2022-08-26T10:13:59.569Z,7.85
2022-08-26T10:17:14.561Z,8.00
2022-08-26T10:20:35.324Z,6.67
2022-08-26T10:23:42.770Z,6.25
2022-08-26T10:26:49.725Z,6.07
2022-08-26T10:29:57.246Z,7.45
2022-08-26T10:33:12.926Z,6.97
2022-08-26T10:36:52.325Z,5.97
2022-08-26T10:40:07.999Z,6.15
2022-08-26T10:43:16.998Z,5.90
2022-08-26T10:46:22.547Z,6.38
2022-08-26T10:49:29.398Z,7.05
2022-08-26T10:52:51.381Z,6.40
2022-08-26T10:56:19.223Z,7.32
2022-08-26T10:59:43.650Z,6.60
2022-08-26T11:02:52.122Z,6.22
2022-08-26T11:06:16.571Z,6.07
2022-08-26T11:09:45.857Z,6.00
2022-08-26T11:12:49.465Z,8.20
2022-08-26T11:15:54.179Z,6.57
2022-08-26T11:18:56.075Z,8.45
2022-08-26T11:22:06.787Z,5.95
2022-08-26T11:25:11.976Z,6.40
2022-08-26T11:28:34.283Z,7.70
2022-08-26T11:31:39.202Z,6.93
2022-08-26T11:38:00.530Z,7.10
2022-08-26T11:41:09.966Z,7.47
2022-08-26T11:44:16.134Z,8.00
2022-08-26T11:47:27.302Z,7.57
2022-08-26T11:50:38.860Z,6.78
2022-08-26T11:53:47.351Z,7.05
2022-08-26T11:56:53.151Z,7.20
2022-08-26T11:59:56.610Z,6.70
2022-08-26T12:03:06.919Z,7.80
2022-08-26T12:06:43.336Z,7.70
2022-08-26T12:09:57.547Z,7.07
2022-08-26T12:13:01.701Z,6.68
2022-08-26T12:16:03.696Z,6.80
2022-08-26T12:19:27.599Z,7.15
2022-08-26T12:22:36.087Z,6.57
2022-08-26T12:25:38.919Z,6.80
2022-08-26T12:29:19.708Z,8.20
2022-08-26T12:32:24.903Z,7.03
2022-08-26T12:35:28.902Z,6.32
2022-08-26T12:38:45.025Z,6.43
2022-08-26T12:41:53.849Z,7.03
2022-08-26T12:45:06.560Z,7.53
2022-08-26T12:48:30.323Z,6.50
2022-08-26T12:51:33.115Z,6.15
2022-08-26T12:54:56.849Z,6.32
2022-08-26T12:58:23.566Z,5.40
2022-08-26T13:01:25.946Z,6.95
2022-08-26T13:04:39.816Z,6.20
2022-08-26T13:07:41.511Z,5.82
2022-08-26T13:10:47.763Z,6.43
2022-08-26T13:14:10.539Z,10.32
2022-08-26T13:17:12.207Z,7.85
2022-08-26T13:20:14.699Z,8.60
2022-08-26T13:23:17.413Z,6.10
2022-08-26T13:26:20.128Z,6.63
2022-08-26T13:29:23.871Z,6.78
2022-08-26T13:32:27.948Z,6.13
2022-08-26T13:35:29.968Z,7.63
2022-08-26T13:38:33.099Z,9.32
2022-08-26T13:41:36.756Z,7.18
2022-08-26T13:44:39.237Z,7.60
2022-08-26T13:47:40.938Z,6.25
2022-08-26T13:50:43.402Z,10.88
2022-08-26T13:53:45.712Z,8.02
2022-08-26T14:00:58.285Z,8.05
2022-08-26T14:04:00.138Z,7.32
2022-08-26T14:07:02.114Z,7.95
2022-08-26T14:10:04.484Z,8.73
2022-08-26T14:13:07.683Z,10.70
2022-08-26T14:16:13.851Z,7.72
2022-08-26T14:19:16.317Z,8.65
2022-08-26T14:22:21.364Z,8.02
2022-08-26T14:25:24.102Z,9.30
2022-08-26T14:31:29.830Z,9.63
2022-08-26T14:34:32.847Z,11.07
2022-08-26T14:37:35.158Z,11.23
2022-08-26T14:40:39.403Z,9.18
2022-08-26T14:43:49.381Z,9.80
2022-08-26T14:46:53.015Z,8.63
2022-08-26T14:49:57.758Z,9.23
2022-08-26T14:53:19.707Z,7.63
2022-08-26T14:59:50.529Z,8.13
2022-08-26T15:06:21.155Z,10.73
2022-08-26T15:09:24.670Z,7.68
2022-08-26T15:12:26.784Z,9.05
2022-08-26T15:15:29.686Z,7.78
2022-08-26T15:18:31.891Z,8.95
2022-08-26T15:21:37.034Z,10.23
2022-08-26T15:24:38.814Z,7.95
2022-08-26T15:27:43.587Z,9.23
2022-08-26T15:30:46.992Z,9.40
2022-08-26T15:33:49.465Z,8.73
2022-08-26T15:36:52.378Z,8.93
2022-08-26T15:39:59.936Z,9.57
2022-08-26T15:43:25.626Z,10.77
2022-08-26T15:46:38.714Z,9.23
2022-08-26T15:49:41.278Z,8.73
2022-08-26T15:52:42.945Z,10.50
2022-08-26T15:55:45.009Z,9.20
2022-08-26T15:58:47.013Z,9.82
2022-08-26T16:01:49.656Z,10.32
2022-08-26T16:04:51.686Z,9.60
2022-08-26T16:07:56.202Z,10.77
2022-08-26T16:11:03.517Z,10.27
2022-08-26T16:14:05.985Z,10.68
2022-08-26T16:17:10.223Z,9.70
2022-08-26T16:20:13.465Z,8.93
2022-08-26T16:23:17.856Z,10.38
2022-08-26T16:26:22.958Z,9.60
2022-08-26T16:29:25.103Z,11.43
2022-08-26T16:32:30.722Z,10.15
2022-08-26T16:35:33.449Z,8.90
2022-08-26T16:38:36.623Z,10.27
2022-08-26T16:41:38.948Z,11.02
2022-08-26T16:44:49.032Z,8.93
2022-08-26T16:47:52.015Z,9.27
2022-08-26T16:50:55.611Z,9.90
2022-08-26T16:53:58.328Z,8.65
2022-08-26T16:57:00.580Z,9.85
2022-08-26T17:00:09.659Z,9.95
2022-08-26T17:03:17.531Z,10.82
2022-08-26T17:06:23.579Z,10.32
2022-08-26T17:09:26.470Z,12.40
2022-08-26T17:12:28.851Z,11.48
2022-08-26T17:15:33.914Z,11.18
2022-08-26T17:18:36.797Z,9.75
2022-08-26T17:21:43.471Z,9.07
2022-08-26T17:25:16.278Z,10.93
2022-08-26T17:28:28.611Z,9.48
2022-08-26T17:46:09.682Z,9.18
2022-08-26T17:49:21.985Z,9.88
2022-08-26T17:52:24.281Z,9.48
2022-08-26T17:55:26.129Z,10.07
2022-08-26T17:58:28.354Z,11.23
2022-08-26T18:01:31.349Z,9.65
2022-08-26T18:08:12.804Z,8.90
2022-08-26T18:11:20.230Z,9.63
2022-08-26T18:17:54.167Z,6.32
2022-08-26T18:21:33.893Z,6.95
2022-08-26T18:24:38.283Z,7.72
2022-08-26T18:38:34.586Z,8.00
2022-08-26T18:41:49.295Z,9.23
2022-08-26T18:44:51.797Z,9.00
2022-08-26T18:47:54.320Z,8.60
2022-08-26T18:51:08.000Z,8.15
2022-08-26T18:54:15.653Z,9.25
2022-08-26T18:57:20.896Z,10.02
2022-08-26T19:00:22.735Z,9.63
2022-08-26T19:03:28.812Z,9.93
2022-08-26T19:09:35.516Z,10.30
2022-08-26T19:12:37.915Z,9.88
2022-08-26T19:15:44.855Z,9.50
2022-08-26T19:18:48.070Z,11.57
2022-08-26T19:21:50.399Z,8.95
2022-08-26T19:24:52.350Z,10.07
2022-08-26T19:27:54.203Z,9.52
2022-08-26T19:30:56.548Z,9.25
2022-08-26T19:33:59.098Z,8.25
2022-08-26T19:37:00.939Z,8.13
2022-08-26T19:40:08.408Z,9.52
2022-08-26T19:43:20.695Z,8.80
2022-08-26T19:46:26.750Z,9.63
2022-08-26T19:49:31.486Z,8.23
2022-08-26T19:52:34.703Z,8.07
2022-08-26T19:56:07.814Z,8.38
2022-08-26T19:59:24.512Z,7.97
2022-08-26T20:02:36.327Z,8.07
2022-08-26T20:05:55.875Z,7.30
2022-08-26T20:09:20.392Z,7.90
2022-08-26T20:17:01.244Z,8.15
2022-08-26T20:21:09.465Z,8.15
2022-08-26T20:21:11.178Z,7.80
2022-08-26T20:31:27.751Z,7.30
2022-08-26T20:34:34.063Z,7.90
2022-08-26T20:37:36.849Z,8.00
2022-08-26T20:40:49.205Z,8.60
2022-08-26T20:43:52.160Z,8.43
2022-08-26T20:47:15.345Z,8.90
2022-08-26T20:50:17.079Z,8.68
2022-08-26T20:53:21.924Z,10.02
2022-08-26T20:56:26.030Z,8.77
2022-08-26T20:59:27.779Z,8.95
2022-08-26T21:02:29.839Z,8.73
2022-08-26T21:05:37.677Z,9.00
2022-08-26T21:08:43.216Z,8.90
2022-08-26T21:12:16.798Z,10.52
2022-08-26T21:15:19.632Z,11.52
2022-08-26T21:18:23.320Z,11.95
2022-08-26T21:25:29.628Z,9.50
2022-08-26T21:28:35.594Z,10.40
2022-08-26T21:35:58.705Z,10.10
2022-08-26T21:39:01.383Z,11.27
2022-08-26T21:42:06.837Z,9.35
2022-08-26T21:45:12.580Z,9.30
2022-08-26T21:48:14.944Z,9.02
2022-08-26T21:51:19.281Z,9.43
2022-08-26T21:54:21.088Z,10.57
2022-08-26T21:57:24.756Z,9.48
2022-08-26T22:00:26.567Z,11.63
2022-08-26T22:03:29.196Z,9.65
2022-08-26T22:06:53.593Z,10.80
2022-08-26T22:09:55.504Z,9.18
2022-08-26T22:13:02.518Z,9.73
2022-08-26T22:16:06.810Z,10.23
2022-08-26T22:19:10.337Z,10.45
2022-08-26T22:22:15.659Z,9.52
2022-08-26T22:25:17.402Z,9.77
2022-08-26T22:28:19.763Z,8.23
2022-08-26T22:31:22.252Z,9.75
2022-08-26T22:34:30.352Z,9.95
2022-08-26T22:37:32.107Z,9.05
2022-08-26T22:40:35.456Z,12.30
2022-08-26T22:43:38.538Z,10.50
2022-08-26T22:46:41.764Z,9.45
2022-08-26T22:58:41.916Z,9.00
2022-08-26T23:05:23.256Z,10.00
2022-08-26T23:08:26.081Z,9.73
2022-08-26T23:12:04.394Z,8.88
2022-08-26T23:15:09.172Z,10.13
2022-08-26T23:18:12.419Z,9.13
2022-08-26T23:21:17.567Z,9.43
2022-08-26T23:24:20.779Z,10.00
2022-08-26T23:27:22.555Z,10.68
2022-08-26T23:30:26.660Z,10.20
2022-08-26T23:33:48.721Z,11.02
2022-08-26T23:36:52.727Z,10.00
2022-08-26T23:39:55.587Z,12.23
2022-08-26T23:42:59.444Z,10.93
2022-08-26T23:46:01.290Z,10.63
2022-08-26T23:49:04.508Z,10.30
2022-08-26T23:52:26.383Z,10.70
2022-08-26T23:55:28.363Z,10.13
2022-08-26T23:58:30.135Z,12.75
